Time;durP1;ratioP1;P1;durP2;ratioP2;P2;SDS_P1;SDS_P2;PMS_P1;PMS_P2;Temp;Humidity;BMP_temperature;BMP_pressure;BME280_temperature;BME280_humidity;BME280_pressure;Samples;Min_cycle;Max_cycle;Signal;HPM_P1;HPM_P2
2023/09/08 00:01:33;;;;;;;;;;;20.70;99.90;;;;;;4987462;28;19922;-67
2023/09/08 00:04:01;;;;;;;;;;;20.60;99.90;;;;;;4980875;28;19928;-68
2023/09/08 00:06:29;;;;;;;;;;;20.70;99.90;;;;;;4988777;28;19928;-68
2023/09/08 00:08:56;;;;;;;;;;;20.80;99.90;;;;;;4989082;28;19926;-67
2023/09/08 00:11:25;;;;;;;;;;;20.80;99.90;;;;;;4977358;28;19926;-68
2023/09/08 00:13:53;;;;;;;;;;;20.80;99.90;;;;;;4980379;28;20372;-69
2023/09/08 00:16:22;;;;;;;;;;;20.80;99.90;;;;;;4977644;28;19925;-69
2023/09/08 00:18:50;;;;;;;;;;;20.90;99.90;;;;;;4982772;28;19953;-69
2023/09/08 00:21:18;;;;;;;;;;;20.90;99.90;;;;;;4980332;28;19926;-69
2023/09/08 00:23:46;;;;;;;;;;;20.80;99.90;;;;;;4984634;28;19929;-69
2023/09/08 00:26:13;;;;;;;;;;;20.70;99.90;;;;;;4978772;28;19965;-69
2023/09/08 00:28:42;;;;;;;;;;;20.60;99.90;;;;;;4985310;28;19984;-70
2023/09/08 00:31:10;;;;;;;;;;;20.60;99.90;;;;;;4981466;28;19929;-68
2023/09/08 00:33:39;;;;;;;;;;;20.60;99.90;;;;;;4981792;28;19922;-69
2023/09/08 00:36:07;;;;;;;;;;;20.60;99.90;;;;;;4985041;28;19933;-69
2023/09/08 00:38:34;;;;;;;;;;;20.60;99.90;;;;;;4987299;28;19922;-69
2023/09/08 00:41:03;;;;;;;;;;;20.50;99.90;;;;;;4980311;28;20012;-69
2023/09/08 00:43:30;;;;;;;;;;;20.40;99.90;;;;;;4984469;28;19941;-68
2023/09/08 00:46:02;;;;;;;;;;;20.40;99.90;;;;;;4989347;28;19925;-69
2023/09/08 00:48:30;;;;;;;;;;;20.40;99.90;;;;;;4986987;28;19922;-69
2023/09/08 00:50:58;;;;;;;;;;;20.60;99.90;;;;;;4982296;28;19922;-68
2023/09/08 00:53:26;;;;;;;;;;;20.60;99.90;;;;;;4978736;28;19937;-69
2023/09/08 00:55:54;;;;;;;;;;;20.50;99.90;;;;;;4986214;28;19926;-69
2023/09/08 00:58:21;;;;;;;;;;;20.40;99.90;;;;;;4981457;28;19922;-69
2023/09/08 01:00:49;;;;;;;;;;;20.40;99.90;;;;;;4980300;28;19921;-68
2023/09/08 01:03:18;;;;;;;;;;;20.50;99.90;;;;;;4982535;28;20327;-68
2023/09/08 01:05:48;;;;;;;;;;;20.50;99.90;;;;;;4983954;28;20016;-68
2023/09/08 01:08:16;;;;;;;;;;;20.50;99.90;;;;;;4982909;28;20308;-68
2023/09/08 01:10:45;;;;;;;;;;;20.50;99.90;;;;;;4977959;28;19925;-69
2023/09/08 01:13:13;;;;;;;;;;;20.50;99.90;;;;;;4981073;28;19934;-70
2023/09/08 01:15:41;;;;;;;;;;;20.30;99.90;;;;;;4985476;28;20395;-69
2023/09/08 01:18:09;;;;;;;;;;;20.30;99.90;;;;;;4979564;28;20303;-68
2023/09/08 01:20:47;;;;;;;;;;;20.30;99.90;;;;;;4983832;28;20012;-68
2023/09/08 01:23:19;;;;;;;;;;;20.40;99.90;;;;;;4983393;28;19937;-68
2023/09/08 01:25:50;;;;;;;;;;;20.30;99.90;;;;;;4981673;28;19929;-68
2023/09/08 01:28:19;;;;;;;;;;;20.30;99.90;;;;;;4980936;28;20444;-69
2023/09/08 01:30:47;;;;;;;;;;;20.30;99.90;;;;;;4987118;28;20028;-68
2023/09/08 01:33:15;;;;;;;;;;;20.30;99.90;;;;;;4980347;28;19969;-68
2023/09/08 01:35:43;;;;;;;;;;;20.30;99.90;;;;;;4982426;28;19972;-69
2023/09/08 01:38:11;;;;;;;;;;;20.30;99.90;;;;;;4980461;28;20457;-68
2023/09/08 01:40:39;;;;;;;;;;;20.30;99.90;;;;;;4991477;28;20012;-68
2023/09/08 01:43:08;;;;;;;;;;;20.20;99.90;;;;;;4979847;28;19937;-68
2023/09/08 01:45:36;;;;;;;;;;;20.30;99.90;;;;;;4985407;28;19929;-69
2023/09/08 01:48:04;;;;;;;;;;;20.20;99.90;;;;;;4978456;28;20017;-68
2023/09/08 01:50:32;;;;;;;;;;;20.20;99.90;;;;;;4986807;28;19926;-69
2023/09/08 01:52:59;;;;;;;;;;;20.10;99.90;;;;;;4980592;28;19930;-69
2023/09/08 01:55:27;;;;;;;;;;;20.10;99.90;;;;;;4982199;28;19976;-69
2023/09/08 01:57:55;;;;;;;;;;;20.00;99.90;;;;;;4983678;28;19922;-68
2023/09/08 02:00:36;;;;;;;;;;;19.90;99.90;;;;;;4980855;28;19961;-69
2023/09/08 02:03:04;;;;;;;;;;;20.00;99.90;;;;;;4972640;28;19940;-68
2023/09/08 02:05:32;;;;;;;;;;;19.90;99.90;;;;;;4978826;28;19948;-69
2023/09/08 02:07:59;;;;;;;;;;;20.00;99.90;;;;;;4983776;28;19927;-67
2023/09/08 02:10:27;;;;;;;;;;;20.00;99.90;;;;;;4986942;28;19925;-68
2023/09/08 02:12:55;;;;;;;;;;;20.10;99.90;;;;;;4985900;28;20291;-69
2023/09/08 02:15:23;;;;;;;;;;;20.10;99.90;;;;;;4984870;28;19922;-69
2023/09/08 02:17:53;;;;;;;;;;;20.10;99.90;;;;;;4981380;28;19921;-70
2023/09/08 02:20:21;;;;;;;;;;;20.10;99.90;;;;;;4982179;28;19922;-69
2023/09/08 02:22:50;;;;;;;;;;;20.10;99.90;;;;;;4986747;28;19925;-69
2023/09/08 02:25:18;;;;;;;;;;;20.00;99.90;;;;;;4980126;28;19926;-69
2023/09/08 02:27:46;;;;;;;;;;;19.90;99.90;;;;;;4980990;28;19928;-69
2023/09/08 02:30:14;;;;;;;;;;;19.80;99.90;;;;;;4980576;28;19941;-68
2023/09/08 02:32:42;;;;;;;;;;;19.70;99.90;;;;;;4983329;28;19922;-68
2023/09/08 02:35:12;;;;;;;;;;;19.60;99.90;;;;;;4984386;28;20296;-68
2023/09/08 02:37:40;;;;;;;;;;;19.60;99.90;;;;;;4991241;28;19922;-69
2023/09/08 02:40:08;;;;;;;;;;;19.50;99.90;;;;;;4982971;28;19930;-69
2023/09/08 02:42:36;;;;;;;;;;;19.50;99.90;;;;;;4988321;28;19930;-69
2023/09/08 02:45:04;;;;;;;;;;;19.40;99.90;;;;;;4982686;28;19933;-68
2023/09/08 02:47:31;;;;;;;;;;;19.40;99.90;;;;;;4983096;28;19969;-68
2023/09/08 02:50:07;;;;;;;;;;;19.40;99.90;;;;;;4983788;28;19926;-69
2023/09/08 02:52:36;;;;;;;;;;;19.50;99.90;;;;;;4984918;28;19926;-69
2023/09/08 02:55:04;;;;;;;;;;;19.50;99.90;;;;;;4981977;28;19926;-69
2023/09/08 02:57:32;;;;;;;;;;;19.50;99.90;;;;;;4982070;28;19926;-68
2023/09/08 03:00:00;;;;;;;;;;;19.50;99.90;;;;;;4987965;28;19934;-69
2023/09/08 03:02:28;;;;;;;;;;;19.50;99.90;;;;;;4981351;28;19930;-69
2023/09/08 03:04:56;;;;;;;;;;;19.40;99.90;;;;;;4977379;28;20284;-69
2023/09/08 03:07:23;;;;;;;;;;;19.40;99.90;;;;;;4984644;28;20288;-72
2023/09/08 03:09:52;;;;;;;;;;;19.30;99.90;;;;;;4991448;28;19929;-69
2023/09/08 03:12:20;;;;;;;;;;;19.30;99.90;;;;;;4984264;28;19922;-69
2023/09/08 03:14:48;;;;;;;;;;;19.30;99.90;;;;;;4979915;28;19922;-69
2023/09/08 03:17:16;;;;;;;;;;;19.30;99.90;;;;;;4983396;28;19976;-69
2023/09/08 03:19:46;;;;;;;;;;;19.20;99.90;;;;;;4980335;28;19936;-69
2023/09/08 03:22:13;;;;;;;;;;;19.20;99.90;;;;;;4986847;28;19929;-68
2023/09/08 03:24:41;;;;;;;;;;;19.20;99.90;;;;;;4979235;28;19988;-69
2023/09/08 03:27:10;;;;;;;;;;;19.20;99.90;;;;;;4982723;28;19984;-69
2023/09/08 03:29:38;;;;;;;;;;;19.10;99.90;;;;;;4987629;28;19930;-69
2023/09/08 03:32:06;;;;;;;;;;;19.20;99.90;;;;;;4980572;28;19948;-68
2023/09/08 03:34:34;;;;;;;;;;;19.20;99.90;;;;;;4980453;28;19933;-69
2023/09/08 03:37:02;;;;;;;;;;;19.10;99.90;;;;;;4981784;28;19922;-69
2023/09/08 03:39:30;;;;;;;;;;;19.10;99.90;;;;;;4980308;28;19972;-68
2023/09/08 03:41:57;;;;;;;;;;;19.00;99.90;;;;;;4987494;28;19925;-69
2023/09/08 03:44:26;;;;;;;;;;;19.00;99.90;;;;;;4981065;28;19922;-69
2023/09/08 03:46:54;;;;;;;;;;;19.00;99.90;;;;;;4978304;28;19922;-69
2023/09/08 03:49:22;;;;;;;;;;;18.90;99.90;;;;;;4987162;28;19972;-69
2023/09/08 03:51:50;;;;;;;;;;;19.00;99.90;;;;;;4982438;28;19934;-69
2023/09/08 03:54:17;;;;;;;;;;;19.00;99.90;;;;;;4973865;28;19930;-69
2023/09/08 03:56:45;;;;;;;;;;;19.20;99.90;;;;;;4979636;28;20438;-69
2023/09/08 03:59:13;;;;;;;;;;;19.20;99.90;;;;;;4980139;28;19922;-67
2023/09/08 04:01:42;;;;;;;;;;;19.20;99.90;;;;;;4984577;28;19969;-68
2023/09/08 04:04:10;;;;;;;;;;;19.20;99.90;;;;;;4977809;28;19922;-69
2023/09/08 04:06:38;;;;;;;;;;;19.30;99.90;;;;;;4978679;28;20304;-69
2023/09/08 04:09:05;;;;;;;;;;;19.30;99.90;;;;;;4989133;28;20012;-69
2023/09/08 04:11:33;;;;;;;;;;;19.30;99.90;;;;;;4982279;28;19928;-69
2023/09/08 04:14:01;;;;;;;;;;;19.30;99.90;;;;;;4986519;28;19925;-69
2023/09/08 04:16:29;;;;;;;;;;;19.30;99.90;;;;;;4987405;28;19962;-69
2023/09/08 04:18:58;;;;;;;;;;;19.10;99.90;;;;;;4998458;28;20484;-69
2023/09/08 04:21:26;;;;;;;;;;;19.20;99.90;;;;;;4989019;28;20645;-70
2023/09/08 04:23:54;;;;;;;;;;;19.20;99.90;;;;;;4985845;28;21317;-70
2023/09/08 04:26:22;;;;;;;;;;;19.20;99.90;;;;;;4994066;28;20042;-69
2023/09/08 04:28:50;;;;;;;;;;;19.20;99.90;;;;;;4992012;28;20292;-69
2023/09/08 04:31:18;;;;;;;;;;;19.10;99.90;;;;;;4998042;28;19964;-70
2023/09/08 04:33:45;;;;;;;;;;;19.00;99.90;;;;;;4994255;28;19940;-70
2023/09/08 04:36:15;;;;;;;;;;;18.90;99.90;;;;;;4995060;28;20028;-69
2023/09/08 04:38:44;;;;;;;;;;;18.80;99.90;;;;;;4996240;28;19932;-69
2023/09/08 04:41:12;;;;;;;;;;;18.80;99.90;;;;;;4997589;28;20016;-70
2023/09/08 04:43:40;;;;;;;;;;;18.80;99.90;;;;;;4993350;28;20036;-68
2023/09/08 04:46:08;;;;;;;;;;;18.90;99.90;;;;;;4978492;28;20055;-68
2023/09/08 04:48:36;;;;;;;;;;;18.90;99.90;;;;;;4996509;28;20514;-68
2023/09/08 04:51:07;;;;;;;;;;;18.90;99.90;;;;;;4997085;28;20392;-68
2023/09/08 04:53:37;;;;;;;;;;;19.00;99.90;;;;;;4994309;28;19937;-68
2023/09/08 04:56:05;;;;;;;;;;;19.00;99.90;;;;;;4996773;28;19934;-69
2023/09/08 04:58:33;;;;;;;;;;;19.10;99.90;;;;;;4997555;28;19968;-68
2023/09/08 05:01:01;;;;;;;;;;;19.00;99.90;;;;;;4995789;28;20472;-68
2023/09/08 05:03:30;;;;;;;;;;;19.10;99.90;;;;;;4994484;28;19948;-71
2023/09/08 05:05:58;;;;;;;;;;;19.10;99.90;;;;;;4998166;28;19922;-68
2023/09/08 05:08:26;;;;;;;;;;;19.00;99.90;;;;;;4997550;28;19930;-68
2023/09/08 05:10:55;;;;;;;;;;;19.00;99.90;;;;;;4993890;28;19972;-70
2023/09/08 05:13:26;;;;;;;;;;;19.10;99.90;;;;;;4993257;28;19937;-69
2023/09/08 05:16:10;;;;;;;;;;;19.00;99.90;;;;;;4996783;28;20375;-68
2023/09/08 05:18:38;;;;;;;;;;;18.90;99.90;;;;;;4987451;28;20489;-68
2023/09/08 05:21:06;;;;;;;;;;;18.90;99.90;;;;;;4990278;28;19984;-68
2023/09/08 05:23:34;;;;;;;;;;;18.90;99.90;;;;;;4988682;28;20835;-68
2023/09/08 05:26:03;;;;;;;;;;;18.90;99.90;;;;;;4996889;28;19996;-68
2023/09/08 05:28:31;;;;;;;;;;;18.70;99.90;;;;;;4995799;28;19921;-68
2023/09/08 05:30:59;;;;;;;;;;;18.80;99.90;;;;;;4996283;28;19928;-70
2023/09/08 05:33:26;;;;;;;;;;;18.90;99.90;;;;;;4994720;28;20399;-70
2023/09/08 05:35:54;;;;;;;;;;;18.90;99.90;;;;;;4996740;28;20998;-69
2023/09/08 05:38:25;;;;;;;;;;;18.90;99.90;;;;;;4996867;28;19933;-70
2023/09/08 05:40:53;;;;;;;;;;;18.90;99.90;;;;;;4997319;28;19934;-69
2023/09/08 05:43:23;;;;;;;;;;;19.00;99.90;;;;;;4990583;28;19934;-70
2023/09/08 05:45:51;;;;;;;;;;;19.00;99.90;;;;;;5000010;28;19932;-68
2023/09/08 05:48:19;;;;;;;;;;;19.10;99.90;;;;;;4998081;28;19943;-69
2023/09/08 05:50:47;;;;;;;;;;;19.10;99.90;;;;;;4991163;28;19973;-68
2023/09/08 05:53:14;;;;;;;;;;;19.20;99.90;;;;;;4991925;28;19934;-69
2023/09/08 05:55:42;;;;;;;;;;;19.20;99.90;;;;;;4998533;28;20021;-70
2023/09/08 05:58:10;;;;;;;;;;;19.30;99.90;;;;;;5000667;28;19930;-68
2023/09/08 06:00:39;;;;;;;;;;;19.30;99.90;;;;;;4997943;28;19981;-67
2023/09/08 06:03:07;;;;;;;;;;;19.30;99.90;;;;;;4978975;28;19925;-68
2023/09/08 06:05:35;;;;;;;;;;;19.30;99.90;;;;;;4985508;28;20013;-68
2023/09/08 06:08:03;;;;;;;;;;;19.30;99.90;;;;;;4987511;28;19964;-68
2023/09/08 06:10:34;;;;;;;;;;;19.40;99.90;;;;;;4986839;28;19932;-67
2023/09/08 06:13:02;;;;;;;;;;;19.50;99.90;;;;;;4979659;28;19934;-67
2023/09/08 06:15:30;;;;;;;;;;;19.50;99.90;;;;;;4980229;28;19926;-66
2023/09/08 06:17:59;;;;;;;;;;;19.60;99.90;;;;;;4979419;28;20292;-66
2023/09/08 06:20:27;;;;;;;;;;;19.60;99.90;;;;;;4984925;28;19976;-65
2023/09/08 06:22:55;;;;;;;;;;;19.70;99.90;;;;;;4992657;28;19953;-66
2023/09/08 06:25:23;;;;;;;;;;;19.70;99.90;;;;;;4985117;28;20404;-66
2023/09/08 06:27:51;;;;;;;;;;;19.80;99.90;;;;;;4991635;28;20500;-66
2023/09/08 06:30:19;;;;;;;;;;;19.90;99.90;;;;;;5000882;28;19929;-66
2023/09/08 06:32:46;;;;;;;;;;;19.90;99.90;;;;;;5002950;28;19926;-66
2023/09/08 06:35:16;;;;;;;;;;;20.00;99.90;;;;;;5001983;28;19921;-65
2023/09/08 06:37:44;;;;;;;;;;;20.00;99.90;;;;;;5002801;28;20017;-65
2023/09/08 06:40:11;;;;;;;;;;;20.10;99.90;;;;;;4998825;28;20460;-65
2023/09/08 06:42:39;;;;;;;;;;;20.20;99.90;;;;;;5013815;28;19922;-66
2023/09/08 06:45:07;;;;;;;;;;;20.20;99.90;;;;;;4993524;28;19933;-65
2023/09/08 06:47:35;;;;;;;;;;;20.30;99.90;;;;;;5014185;28;19967;-65
2023/09/08 06:50:03;;;;;;;;;;;20.40;99.90;;;;;;5003355;28;19953;-66
2023/09/08 06:52:32;;;;;;;;;;;20.50;99.90;;;;;;5008171;28;19925;-65
2023/09/08 06:55:00;;;;;;;;;;;20.50;99.90;;;;;;5011828;28;19925;-65
2023/09/08 06:57:28;;;;;;;;;;;20.60;99.90;;;;;;5002253;28;19925;-65
2023/09/08 06:59:56;;;;;;;;;;;20.70;99.90;;;;;;5000897;28;20020;-65
2023/09/08 07:02:23;;;;;;;;;;;20.80;99.90;;;;;;5013459;28;20295;-66
2023/09/08 07:04:52;;;;;;;;;;;20.90;99.90;;;;;;5013062;28;19921;-65
2023/09/08 07:07:23;;;;;;;;;;;20.90;99.90;;;;;;4999379;28;20355;-66
2023/09/08 07:09:52;;;;;;;;;;;21.00;99.90;;;;;;5012786;28;19932;-64
2023/09/08 07:12:20;;;;;;;;;;;21.00;99.90;;;;;;5001824;28;19926;-66
2023/09/08 07:14:48;;;;;;;;;;;21.10;99.90;;;;;;5001912;28;19922;-65
2023/09/08 07:17:16;;;;;;;;;;;21.20;99.90;;;;;;5009714;28;19922;-65
2023/09/08 07:19:44;;;;;;;;;;;21.30;99.90;;;;;;5004182;28;20007;-65
2023/09/08 07:22:11;;;;;;;;;;;21.40;99.90;;;;;;5001674;28;19928;-66
2023/09/08 07:24:39;;;;;;;;;;;21.50;99.90;;;;;;5000770;28;19921;-66
2023/09/08 07:27:08;;;;;;;;;;;21.50;99.90;;;;;;5004914;28;19928;-65
2023/09/08 07:29:36;;;;;;;;;;;21.50;99.90;;;;;;5013074;28;19932;-65
2023/09/08 07:32:04;;;;;;;;;;;21.50;99.90;;;;;;5012914;28;19925;-66
2023/09/08 07:34:32;;;;;;;;;;;21.60;99.90;;;;;;5002014;28;19922;-65
2023/09/08 07:37:00;;;;;;;;;;;21.70;99.90;;;;;;5001368;28;19922;-66
2023/09/08 07:39:28;;;;;;;;;;;21.90;99.90;;;;;;4998784;28;19925;-66
2023/09/08 07:41:56;;;;;;;;;;;21.90;99.90;;;;;;5004721;28;19922;-66
2023/09/08 07:44:29;;;;;;;;;;;21.90;99.90;;;;;;5012191;28;19948;-65
2023/09/08 07:46:57;;;;;;;;;;;22.00;99.90;;;;;;5005202;28;19972;-66
2023/09/08 07:49:25;;;;;;;;;;;22.10;99.90;;;;;;5006196;28;19968;-65
2023/09/08 07:51:53;;;;;;;;;;;22.20;99.90;;;;;;4996205;28;19921;-66
2023/09/08 07:54:20;;;;;;;;;;;22.30;99.90;;;;;;4991406;28;19922;-66
2023/09/08 07:56:48;;;;;;;;;;;22.50;99.90;;;;;;5001317;28;19929;-66
2023/09/08 07:59:16;;;;;;;;;;;22.60;99.90;;;;;;5004194;28;20332;-66
2023/09/08 08:01:45;;;;;;;;;;;22.70;99.90;;;;;;5012476;28;19921;-66
2023/09/08 08:04:13;;;;;;;;;;;22.80;99.90;;;;;;5011351;28;20028;-66
2023/09/08 08:06:41;;;;;;;;;;;22.90;99.90;;;;;;5005987;28;19928;-66
2023/09/08 08:09:08;;;;;;;;;;;23.10;99.90;;;;;;4998247;28;20343;-66
2023/09/08 08:11:37;;;;;;;;;;;23.30;99.90;;;;;;4999027;28;19921;-66
2023/09/08 08:14:05;;;;;;;;;;;23.40;99.90;;;;;;5003953;28;20395;-66
2023/09/08 08:16:33;;;;;;;;;;;23.60;99.90;;;;;;5012355;28;20376;-66
2023/09/08 08:19:05;;;;;;;;;;;23.70;99.90;;;;;;5002539;28;20339;-66
2023/09/08 08:21:33;;;;;;;;;;;23.90;99.90;;;;;;5006331;28;19972;-65
2023/09/08 08:24:01;;;;;;;;;;;24.00;99.90;;;;;;5025653;22;19921;-67
2023/09/08 08:26:32;;;;;;;;;;;24.20;99.90;;;;;;4990319;28;20597;-66
2023/09/08 08:29:00;;;;;;;;;;;24.30;99.90;;;;;;4992162;28;19922;-66
2023/09/08 08:31:28;;;;;;;;;;;24.40;99.90;;;;;;4992369;28;19972;-67
2023/09/08 08:33:56;;;;;;;;;;;24.60;99.90;;;;;;4991645;28;20269;-68
2023/09/08 08:36:25;;;;;;;;;;;24.70;99.90;;;;;;5000777;28;19922;-67
2023/09/08 08:38:53;;;;;;;;;;;24.90;99.90;;;;;;5000443;28;19928;-67
2023/09/08 08:41:21;;;;;;;;;;;25.00;99.90;;;;;;4992646;28;19926;-68
2023/09/08 08:43:50;;;;;;;;;;;25.00;99.90;;;;;;4998856;28;19925;-67
2023/09/08 08:46:31;;;;;;;;;;;25.30;99.90;;;;;;4997654;28;19921;-67
2023/09/08 08:48:59;;;;;;;;;;;25.60;99.90;;;;;;5003945;28;19926;-67
2023/09/08 08:51:29;;;;;;;;;;;25.50;99.90;;;;;;5003122;28;19922;-65
2023/09/08 08:53:57;;;;;;;;;;;25.40;99.90;;;;;;5003287;28;20310;-68
2023/09/08 08:56:24;;;;;;;;;;;25.40;99.90;;;;;;5008050;28;19926;-66
2023/09/08 08:58:52;;;;;;;;;;;25.60;99.90;;;;;;4999782;28;20041;-67
2023/09/08 09:01:21;;;;;;;;;;;25.80;99.90;;;;;;5011535;28;20405;-67
2023/09/08 09:03:50;;;;;;;;;;;25.90;99.90;;;;;;5011329;28;19955;-68
2023/09/08 09:06:18;;;;;;;;;;;26.00;99.90;;;;;;5000857;28;19929;-66
2023/09/08 09:08:48;;;;;;;;;;;26.10;99.90;;;;;;5006935;28;19953;-67
2023/09/08 09:11:16;;;;;;;;;;;26.20;99.90;;;;;;5009087;28;19925;-67
2023/09/08 09:13:44;;;;;;;;;;;26.50;99.90;;;;;;4998098;28;20284;-67
2023/09/08 09:16:11;;;;;;;;;;;26.70;99.90;;;;;;5010589;28;19972;-67
2023/09/08 09:18:54;;;;;;;;;;;26.70;99.90;;;;;;5010266;28;20454;-67
2023/09/08 09:21:22;;;;;;;;;;;26.90;99.90;;;;;;4995628;28;20012;-67
2023/09/08 09:23:51;;;;;;;;;;;26.70;99.90;;;;;;5010585;28;19929;-66
2023/09/08 09:26:24;;;;;;;;;;;26.90;99.90;;;;;;5004189;28;19921;-67
2023/09/08 09:28:53;;;;;;;;;;;27.20;99.90;;;;;;5003018;28;19926;-67
2023/09/08 09:31:25;;;;;;;;;;;27.50;99.90;;;;;;5012358;28;19992;-67
2023/09/08 09:34:04;;;;;;;;;;;27.60;99.90;;;;;;5002723;28;19952;-68
2023/09/08 09:36:32;;;;;;;;;;;27.70;99.90;;;;;;5001112;28;19925;-67
2023/09/08 09:39:03;;;;;;;;;;;27.70;99.90;;;;;;5007207;28;19929;-67
2023/09/08 09:41:31;;;;;;;;;;;27.60;99.90;;;;;;5007904;28;20367;-66
2023/09/08 09:43:58;;;;;;;;;;;27.70;99.90;;;;;;5005075;28;20342;-67
2023/09/08 09:46:28;;;;;;;;;;;27.80;99.90;;;;;;4999248;28;19925;-67
2023/09/08 09:48:56;;;;;;;;;;;28.10;99.90;;;;;;4999902;28;19933;-67
2023/09/08 09:51:24;;;;;;;;;;;28.10;99.90;;;;;;5006403;28;19976;-67
2023/09/08 09:53:54;;;;;;;;;;;28.30;99.90;;;;;;5014615;28;19926;-68
2023/09/08 09:56:24;;;;;;;;;;;28.60;99.90;;;;;;5004775;28;19948;-67
2023/09/08 09:58:53;;;;;;;;;;;28.80;99.90;;;;;;5009508;28;20380;-68
2023/09/08 10:01:22;;;;;;;;;;;29.00;99.90;;;;;;4995975;28;19926;-67
2023/09/08 10:03:50;;;;;;;;;;;29.00;99.90;;;;;;5003068;28;19961;-68
2023/09/08 10:06:20;;;;;;;;;;;29.20;99.90;;;;;;5002966;28;19921;-68
2023/09/08 10:08:48;;;;;;;;;;;29.70;99.80;;;;;;5009449;28;20296;-67
2023/09/08 10:11:19;;;;;;;;;;;30.10;98.80;;;;;;5005018;28;20418;-67
2023/09/08 10:13:51;;;;;;;;;;;30.40;98.80;;;;;;5008361;28;19930;-67
2023/09/08 10:16:20;;;;;;;;;;;30.10;97.80;;;;;;5013219;28;20318;-67
2023/09/08 10:18:50;;;;;;;;;;;30.10;97.90;;;;;;5006459;28;19922;-67
2023/09/08 10:21:18;;;;;;;;;;;30.20;97.80;;;;;;5006220;28;20384;-67
2023/09/08 10:23:52;;;;;;;;;;;30.40;98.00;;;;;;5006085;28;19921;-67
2023/09/08 10:26:22;;;;;;;;;;;30.50;97.00;;;;;;5005968;28;19969;-67
2023/09/08 10:28:55;;;;;;;;;;;30.30;96.80;;;;;;5014141;28;20384;-67
2023/09/08 10:31:24;;;;;;;;;;;30.40;96.90;;;;;;4994704;28;19925;-67
2023/09/08 10:33:52;;;;;;;;;;;30.60;97.90;;;;;;5008895;28;19932;-68
2023/09/08 10:36:20;;;;;;;;;;;30.60;96.40;;;;;;4997943;28;19926;-68
2023/09/08 10:38:50;;;;;;;;;;;30.40;96.20;;;;;;5014349;28;20016;-67
2023/09/08 10:41:29;;;;;;;;;;;30.30;96.60;;;;;;5011728;28;19921;-68
2023/09/08 10:44:00;;;;;;;;;;;30.50;97.20;;;;;;5006971;28;19926;-67
2023/09/08 10:46:29;;;;;;;;;;;30.80;95.90;;;;;;5005254;28;20323;-67
2023/09/08 10:49:03;;;;;;;;;;;30.60;95.90;;;;;;5007505;28;19922;-68
2023/09/08 10:51:31;;;;;;;;;;;30.80;96.10;;;;;;5005706;28;19921;-68
2023/09/08 10:53:58;;;;;;;;;;;30.90;95.30;;;;;;5013504;28;19929;-67
2023/09/08 10:56:47;;;;;;;;;;;31.20;95.20;;;;;;5011412;28;19926;-67
2023/09/08 10:59:16;;;;;;;;;;;31.20;95.70;;;;;;5004628;28;19964;-67
2023/09/08 11:01:44;;;;;;;;;;;31.80;93.80;;;;;;5007268;28;19921;-68
2023/09/08 11:04:13;;;;;;;;;;;31.80;93.80;;;;;;5004384;28;19921;-66
2023/09/08 11:06:41;;;;;;;;;;;31.90;92.70;;;;;;4980592;28;19921;-67
2023/09/08 11:09:09;;;;;;;;;;;31.80;92.70;;;;;;4989828;28;19931;-67
2023/09/08 11:11:37;;;;;;;;;;;31.80;91.80;;;;;;5004364;28;19976;-67
2023/09/08 11:14:05;;;;;;;;;;;31.80;92.50;;;;;;5005603;28;20303;-67
2023/09/08 11:16:35;;;;;;;;;;;31.50;92.60;;;;;;5013111;28;19929;-68
2023/09/08 11:19:04;;;;;;;;;;;31.50;92.00;;;;;;5006325;28;19922;-68
2023/09/08 11:21:34;;;;;;;;;;;31.40;92.00;;;;;;4996719;28;19972;-68
2023/09/08 11:24:04;;;;;;;;;;;31.70;92.30;;;;;;5012811;28;20023;-68
2023/09/08 11:26:33;;;;;;;;;;;31.60;91.50;;;;;;5010319;28;19932;-68
2023/09/08 11:29:01;;;;;;;;;;;31.80;92.10;;;;;;5005169;28;19921;-68
2023/09/08 11:31:29;;;;;;;;;;;31.80;90.90;;;;;;5013009;28;19928;-68
2023/09/08 11:33:59;;;;;;;;;;;32.10;90.60;;;;;;4994009;28;19932;-68
2023/09/08 11:36:28;;;;;;;;;;;32.40;90.00;;;;;;5011174;28;19922;-68
2023/09/08 11:38:56;;;;;;;;;;;32.40;90.40;;;;;;5011942;28;19921;-68
2023/09/08 11:41:24;;;;;;;;;;;32.50;90.10;;;;;;5004667;28;20399;-67
2023/09/08 11:43:52;;;;;;;;;;;32.60;90.00;;;;;;5007108;28;19928;-68
2023/09/08 11:46:19;;;;;;;;;;;32.40;89.30;;;;;;5010295;28;19925;-69
2023/09/08 11:48:48;;;;;;;;;;;32.60;90.10;;;;;;4998481;28;20319;-69
2023/09/08 11:51:17;;;;;;;;;;;32.70;89.90;;;;;;5001666;28;19921;-67
2023/09/08 11:53:43;;;;;;;;;;;33.10;87.70;;;;;;5012466;28;19921;-68
2023/09/08 11:56:11;;;;;;;;;;;33.30;87.40;;;;;;4996852;28;19967;-68
2023/09/08 11:58:39;;;;;;;;;;;33.60;86.20;;;;;;4988737;28;19975;-68
2023/09/08 12:01:07;;;;;;;;;;;33.80;86.30;;;;;;5005362;28;19921;-68
2023/09/08 12:03:35;;;;;;;;;;;34.10;85.60;;;;;;5008841;28;19925;-68
2023/09/08 12:06:03;;;;;;;;;;;34.20;86.60;;;;;;5007628;28;20604;-68
2023/09/08 12:08:32;;;;;;;;;;;34.10;85.30;;;;;;5007587;28;19978;-68
2023/09/08 12:11:01;;;;;;;;;;;33.90;83.30;;;;;;5012579;28;19921;-68
2023/09/08 12:13:28;;;;;;;;;;;33.70;84.30;;;;;;5012045;28;19925;-67
2023/09/08 12:15:56;;;;;;;;;;;33.60;82.90;;;;;;5008241;28;19921;-68
2023/09/08 12:18:38;;;;;;;;;;;33.80;83.10;;;;;;5002919;28;19925;-68
2023/09/08 12:21:06;;;;;;;;;;;34.10;84.10;;;;;;5007784;28;20052;-69
2023/09/08 12:23:35;;;;;;;;;;;34.10;84.20;;;;;;5003653;28;19925;-69
2023/09/08 12:26:02;;;;;;;;;;;34.40;83.60;;;;;;5003622;28;19926;-68
2023/09/08 12:28:31;;;;;;;;;;;34.90;84.80;;;;;;4995917;28;19984;-68
2023/09/08 12:30:59;;;;;;;;;;;34.80;82.80;;;;;;5012265;28;19960;-68
2023/09/08 12:33:27;;;;;;;;;;;34.60;81.60;;;;;;5003611;28;19922;-67
2023/09/08 12:35:55;;;;;;;;;;;34.80;81.80;;;;;;5006817;28;20012;-68
2023/09/08 12:38:23;;;;;;;;;;;34.90;80.60;;;;;;5009176;28;19933;-68
2023/09/08 12:40:52;;;;;;;;;;;35.20;79.70;;;;;;4993570;28;19925;-68
2023/09/08 12:43:20;;;;;;;;;;;35.70;79.40;;;;;;4992083;28;19969;-68
2023/09/08 12:45:54;;;;;;;;;;;35.50;78.70;;;;;;5007444;28;19921;-68
2023/09/08 12:48:23;;;;;;;;;;;35.20;78.90;;;;;;5010994;28;20025;-68
2023/09/08 12:50:50;;;;;;;;;;;34.80;79.50;;;;;;4991261;28;19928;-69
2023/09/08 12:53:18;;;;;;;;;;;34.90;80.60;;;;;;4989844;28;20348;-72
2023/09/08 12:55:46;;;;;;;;;;;34.90;79.50;;;;;;5011789;28;20012;-68
2023/09/08 12:58:15;;;;;;;;;;;34.80;79.80;;;;;;5011885;28;19928;-68
2023/09/08 13:00:43;;;;;;;;;;;35.10;78.70;;;;;;5003409;28;19922;-68
2023/09/08 13:03:11;;;;;;;;;;;35.20;79.70;;;;;;5010109;28;19971;-68
2023/09/08 13:05:39;;;;;;;;;;;35.10;77.80;;;;;;4992728;28;19929;-68
2023/09/08 13:08:07;;;;;;;;;;;35.20;77.90;;;;;;4997232;28;19928;-69
2023/09/08 13:10:35;;;;;;;;;;;35.50;77.50;;;;;;4993936;28;19929;-69
2023/09/08 13:13:06;;;;;;;;;;;36.10;77.70;;;;;;5005608;28;19933;-68
2023/09/08 13:15:36;;;;;;;;;;;36.10;76.00;;;;;;4999778;28;19928;-67
2023/09/08 13:18:07;;;;;;;;;;;35.90;76.80;;;;;;5000345;28;19925;-69
2023/09/08 13:20:34;;;;;;;;;;;35.70;77.30;;;;;;4999914;28;19921;-69
2023/09/08 13:23:02;;;;;;;;;;;36.10;75.60;;;;;;4999891;28;19937;-68
2023/09/08 13:25:30;;;;;;;;;;;36.20;74.40;;;;;;4997771;28;19928;-69
2023/09/08 13:27:58;;;;;;;;;;;36.10;75.70;;;;;;5005127;28;19921;-68
2023/09/08 13:30:27;;;;;;;;;;;36.10;73.40;;;;;;5002560;28;19980;-69
2023/09/08 13:32:56;;;;;;;;;;;35.80;73.00;;;;;;5004271;28;19921;-69
2023/09/08 13:35:24;;;;;;;;;;;36.20;72.70;;;;;;5002876;28;19948;-69
2023/09/08 13:37:51;;;;;;;;;;;36.20;73.50;;;;;;5003438;28;19921;-69
2023/09/08 13:40:19;;;;;;;;;;;36.00;72.30;;;;;;5011462;28;19928;-69
2023/09/08 13:42:47;;;;;;;;;;;36.40;72.40;;;;;;5010818;28;19971;-69
2023/09/08 13:45:15;;;;;;;;;;;36.80;71.50;;;;;;4994619;28;20284;-69
2023/09/08 13:47:43;;;;;;;;;;;37.00;71.10;;;;;;5007632;28;19925;-69
2023/09/08 13:50:13;;;;;;;;;;;37.30;70.30;;;;;;4998274;28;19929;-69
2023/09/08 13:52:41;;;;;;;;;;;37.50;70.00;;;;;;5008638;28;19922;-69
2023/09/08 13:55:11;;;;;;;;;;;37.60;69.70;;;;;;4997801;28;19929;-69
2023/09/08 13:57:58;;;;;;;;;;;37.30;69.20;;;;;;4985111;28;20345;-70
2023/09/08 14:00:29;;;;;;;;;;;37.00;68.30;;;;;;4993709;28;19983;-69
2023/09/08 14:02:58;;;;;;;;;;;37.10;69.30;;;;;;5000281;28;20089;-69
2023/09/08 14:05:33;;;;;;;;;;;37.10;69.40;;;;;;5004046;28;19945;-69
2023/09/08 14:08:05;;;;;;;;;;;37.10;69.80;;;;;;5001421;28;19926;-70
2023/09/08 14:10:45;;;;;;;;;;;37.40;68.00;;;;;;5013998;28;19929;-69
2023/09/08 14:13:15;;;;;;;;;;;37.30;67.90;;;;;;5006600;28;19992;-69
2023/09/08 14:15:43;;;;;;;;;;;37.10;67.10;;;;;;5008615;28;19926;-69
2023/09/08 14:18:11;;;;;;;;;;;36.80;66.60;;;;;;5014611;28;19921;-69
2023/09/08 14:20:40;;;;;;;;;;;36.70;66.70;;;;;;5000223;28;19926;-69
2023/09/08 14:23:08;;;;;;;;;;;36.80;67.90;;;;;;5002813;28;20454;-68
2023/09/08 14:25:36;;;;;;;;;;;36.70;67.90;;;;;;4996188;28;20288;-68